sensor_id;sensor_type;location;lat;lon;timestamp;P1;durP1;ratioP1;P2;durP2;ratioP2
64619;SDS011;51029;51.058;13.826;2022-07-29T00:00:23;3.83;;;2.00;;
64619;SDS011;51029;51.058;13.826;2022-07-29T00:02:49;3.50;;;1.67;;
64619;SDS011;51029;51.058;13.826;2022-07-29T00:05:15;3.97;;;2.00;;
64619;SDS011;51029;51.058;13.826;2022-07-29T00:07:41;3.67;;;1.93;;
64619;SDS011;51029;51.058;13.826;2022-07-29T00:10:07;3.50;;;2.10;;
64619;SDS011;51029;51.058;13.826;2022-07-29T00:12:33;4.10;;;2.43;;
64619;SDS011;51029;51.058;13.826;2022-07-29T00:15:00;2.50;;;1.90;;
64619;SDS011;51029;51.058;13.826;2022-07-29T00:17:26;4.00;;;2.00;;
64619;SDS011;51029;51.058;13.826;2022-07-29T00:19:52;5.23;;;1.83;;
64619;SDS011;51029;51.058;13.826;2022-07-29T00:22:18;3.10;;;2.00;;
64619;SDS011;51029;51.058;13.826;2022-07-29T00:24:44;8.07;;;2.53;;
64619;SDS011;51029;51.058;13.826;2022-07-29T00:27:10;4.07;;;1.70;;
64619;SDS011;51029;51.058;13.826;2022-07-29T00:29:36;4.50;;;2.20;;
64619;SDS011;51029;51.058;13.826;2022-07-29T00:32:02;4.67;;;1.93;;
64619;SDS011;51029;51.058;13.826;2022-07-29T00:34:28;5.53;;;2.10;;
64619;SDS011;51029;51.058;13.826;2022-07-29T00:37:13;3.17;;;1.90;;
64619;SDS011;51029;51.058;13.826;2022-07-29T00:39:39;6.90;;;2.37;;
64619;SDS011;51029;51.058;13.826;2022-07-29T00:42:05;6.33;;;1.90;;
64619;SDS011;51029;51.058;13.826;2022-07-29T00:44:32;5.20;;;1.73;;
64619;SDS011;51029;51.058;13.826;2022-07-29T00:47:01;2.83;;;1.80;;
64619;SDS011;51029;51.058;13.826;2022-07-29T00:49:27;5.23;;;2.10;;
64619;SDS011;51029;51.058;13.826;2022-07-29T00:51:53;5.63;;;2.23;;
64619;SDS011;51029;51.058;13.826;2022-07-29T00:54:19;6.53;;;2.10;;
64619;SDS011;51029;51.058;13.826;2022-07-29T00:56:45;4.70;;;1.80;;
64619;SDS011;51029;51.058;13.826;2022-07-29T00:59:11;2.67;;;1.90;;
64619;SDS011;51029;51.058;13.826;2022-07-29T01:01:37;4.13;;;1.87;;
64619;SDS011;51029;51.058;13.826;2022-07-29T01:04:03;3.40;;;1.87;;
64619;SDS011;51029;51.058;13.826;2022-07-29T01:06:29;5.00;;;2.20;;
64619;SDS011;51029;51.058;13.826;2022-07-29T01:08:55;3.97;;;1.93;;
64619;SDS011;51029;51.058;13.826;2022-07-29T01:11:21;5.17;;;1.93;;
64619;SDS011;51029;51.058;13.826;2022-07-29T01:13:47;3.07;;;1.60;;
64619;SDS011;51029;51.058;13.826;2022-07-29T01:16:15;5.27;;;1.90;;
64619;SDS011;51029;51.058;13.826;2022-07-29T01:18:44;2.50;;;1.70;;
64619;SDS011;51029;51.058;13.826;2022-07-29T01:21:23;2.77;;;1.97;;
64619;SDS011;51029;51.058;13.826;2022-07-29T01:31:42;4.17;;;2.10;;
64619;SDS011;51029;51.058;13.826;2022-07-29T01:34:10;5.23;;;2.00;;
64619;SDS011;51029;51.058;13.826;2022-07-29T01:36:40;3.57;;;2.10;;
64619;SDS011;51029;51.058;13.826;2022-07-29T01:39:10;3.20;;;2.07;;
64619;SDS011;51029;51.058;13.826;2022-07-29T01:41:38;4.77;;;1.97;;
64619;SDS011;51029;51.058;13.826;2022-07-29T01:44:15;4.73;;;2.10;;
64619;SDS011;51029;51.058;13.826;2022-07-29T01:46:44;3.73;;;1.97;;
64619;SDS011;51029;51.058;13.826;2022-07-29T01:49:13;3.73;;;1.90;;
64619;SDS011;51029;51.058;13.826;2022-07-29T01:51:48;3.07;;;1.83;;
64619;SDS011;51029;51.058;13.826;2022-07-29T01:54:24;3.80;;;1.80;;
64619;SDS011;51029;51.058;13.826;2022-07-29T01:56:51;4.70;;;1.90;;
64619;SDS011;51029;51.058;13.826;2022-07-29T01:59:19;3.90;;;2.10;;
64619;SDS011;51029;51.058;13.826;2022-07-29T02:01:46;3.77;;;2.10;;
64619;SDS011;51029;51.058;13.826;2022-07-29T02:04:12;4.23;;;2.33;;
64619;SDS011;51029;51.058;13.826;2022-07-29T02:06:40;3.97;;;2.33;;
64619;SDS011;51029;51.058;13.826;2022-07-29T02:09:08;4.90;;;2.10;;
64619;SDS011;51029;51.058;13.826;2022-07-29T02:11:35;3.93;;;1.90;;
64619;SDS011;51029;51.058;13.826;2022-07-29T02:14:02;4.37;;;2.20;;
64619;SDS011;51029;51.058;13.826;2022-07-29T02:16:30;7.13;;;2.37;;
64619;SDS011;51029;51.058;13.826;2022-07-29T02:18:56;7.57;;;2.30;;
64619;SDS011;51029;51.058;13.826;2022-07-29T02:21:24;5.50;;;2.10;;
64619;SDS011;51029;51.058;13.826;2022-07-29T02:23:51;4.27;;;2.00;;
64619;SDS011;51029;51.058;13.826;2022-07-29T02:26:19;3.77;;;1.90;;
64619;SDS011;51029;51.058;13.826;2022-07-29T02:28:46;5.17;;;2.00;;
64619;SDS011;51029;51.058;13.826;2022-07-29T02:31:12;4.00;;;2.03;;
64619;SDS011;51029;51.058;13.826;2022-07-29T02:33:39;5.20;;;2.37;;
64619;SDS011;51029;51.058;13.826;2022-07-29T02:36:06;4.13;;;2.07;;
64619;SDS011;51029;51.058;13.826;2022-07-29T02:38:32;3.80;;;2.20;;
64619;SDS011;51029;51.058;13.826;2022-07-29T02:47:04;4.10;;;1.90;;
64619;SDS011;51029;51.058;13.826;2022-07-29T02:49:34;4.07;;;2.10;;
64619;SDS011;51029;51.058;13.826;2022-07-29T02:52:01;4.20;;;2.57;;
64619;SDS011;51029;51.058;13.826;2022-07-29T02:54:33;5.90;;;2.10;;
64619;SDS011;51029;51.058;13.826;2022-07-29T02:57:04;6.30;;;2.10;;
64619;SDS011;51029;51.058;13.826;2022-07-29T02:59:32;4.03;;;2.30;;
64619;SDS011;51029;51.058;13.826;2022-07-29T03:01:58;5.30;;;2.23;;
64619;SDS011;51029;51.058;13.826;2022-07-29T03:04:25;3.97;;;2.10;;
64619;SDS011;51029;51.058;13.826;2022-07-29T03:06:54;4.67;;;2.27;;
64619;SDS011;51029;51.058;13.826;2022-07-29T03:09:20;8.37;;;2.70;;
64619;SDS011;51029;51.058;13.826;2022-07-29T03:11:47;4.80;;;2.73;;
64619;SDS011;51029;51.058;13.826;2022-07-29T03:14:13;5.50;;;2.40;;
64619;SDS011;51029;51.058;13.826;2022-07-29T03:16:39;5.93;;;2.20;;
64619;SDS011;51029;51.058;13.826;2022-07-29T03:19:05;6.30;;;2.33;;
64619;SDS011;51029;51.058;13.826;2022-07-29T03:21:31;4.53;;;2.20;;
64619;SDS011;51029;51.058;13.826;2022-07-29T03:23:57;4.93;;;2.40;;
64619;SDS011;51029;51.058;13.826;2022-07-29T03:26:23;5.77;;;2.13;;
64619;SDS011;51029;51.058;13.826;2022-07-29T03:28:49;2.77;;;2.00;;
64619;SDS011;51029;51.058;13.826;2022-07-29T03:31:15;3.50;;;1.97;;
64619;SDS011;51029;51.058;13.826;2022-07-29T03:33:41;3.73;;;2.20;;
64619;SDS011;51029;51.058;13.826;2022-07-29T03:36:07;3.77;;;2.27;;
64619;SDS011;51029;51.058;13.826;2022-07-29T03:38:33;4.40;;;2.40;;
64619;SDS011;51029;51.058;13.826;2022-07-29T03:41:03;4.63;;;2.20;;
64619;SDS011;51029;51.058;13.826;2022-07-29T03:43:31;7.43;;;2.73;;
64619;SDS011;51029;51.058;13.826;2022-07-29T03:45:58;6.57;;;2.70;;
64619;SDS011;51029;51.058;13.826;2022-07-29T03:48:25;5.50;;;2.17;;
64619;SDS011;51029;51.058;13.826;2022-07-29T03:50:52;4.77;;;2.03;;
64619;SDS011;51029;51.058;13.826;2022-07-29T03:53:18;6.43;;;2.47;;
64619;SDS011;51029;51.058;13.826;2022-07-29T03:55:45;4.13;;;2.17;;
64619;SDS011;51029;51.058;13.826;2022-07-29T03:58:13;5.23;;;2.37;;
64619;SDS011;51029;51.058;13.826;2022-07-29T04:00:39;4.67;;;2.37;;
64619;SDS011;51029;51.058;13.826;2022-07-29T04:03:05;6.23;;;2.37;;
64619;SDS011;51029;51.058;13.826;2022-07-29T04:05:32;5.50;;;2.30;;
64619;SDS011;51029;51.058;13.826;2022-07-29T04:07:58;5.13;;;2.50;;
64619;SDS011;51029;51.058;13.826;2022-07-29T04:10:24;5.73;;;2.40;;
64619;SDS011;51029;51.058;13.826;2022-07-29T04:12:50;4.30;;;2.60;;
64619;SDS011;51029;51.058;13.826;2022-07-29T04:15:15;5.17;;;2.57;;
64619;SDS011;51029;51.058;13.826;2022-07-29T04:17:41;4.83;;;2.50;;
64619;SDS011;51029;51.058;13.826;2022-07-29T04:20:08;4.40;;;2.50;;
64619;SDS011;51029;51.058;13.826;2022-07-29T04:22:34;7.07;;;2.70;;
64619;SDS011;51029;51.058;13.826;2022-07-29T04:25:00;8.87;;;2.80;;
64619;SDS011;51029;51.058;13.826;2022-07-29T04:27:26;6.90;;;2.43;;
64619;SDS011;51029;51.058;13.826;2022-07-29T04:29:52;6.97;;;2.50;;
64619;SDS011;51029;51.058;13.826;2022-07-29T04:32:17;3.73;;;2.40;;
64619;SDS011;51029;51.058;13.826;2022-07-29T04:34:43;5.07;;;2.63;;
64619;SDS011;51029;51.058;13.826;2022-07-29T04:37:11;7.80;;;2.57;;
64619;SDS011;51029;51.058;13.826;2022-07-29T04:39:37;6.17;;;2.53;;
64619;SDS011;51029;51.058;13.826;2022-07-29T04:42:03;6.80;;;2.90;;
64619;SDS011;51029;51.058;13.826;2022-07-29T04:44:29;6.73;;;2.57;;
64619;SDS011;51029;51.058;13.826;2022-07-29T04:46:56;7.43;;;2.50;;
64619;SDS011;51029;51.058;13.826;2022-07-29T04:49:22;5.47;;;2.27;;
64619;SDS011;51029;51.058;13.826;2022-07-29T04:51:48;4.93;;;2.63;;
64619;SDS011;51029;51.058;13.826;2022-07-29T04:54:14;4.20;;;2.50;;
64619;SDS011;51029;51.058;13.826;2022-07-29T04:56:40;4.20;;;2.50;;
64619;SDS011;51029;51.058;13.826;2022-07-29T04:59:06;7.47;;;2.77;;
64619;SDS011;51029;51.058;13.826;2022-07-29T05:01:32;6.63;;;2.80;;
64619;SDS011;51029;51.058;13.826;2022-07-29T05:03:58;6.47;;;2.47;;
64619;SDS011;51029;51.058;13.826;2022-07-29T05:06:24;4.87;;;2.60;;
64619;SDS011;51029;51.058;13.826;2022-07-29T05:08:50;10.57;;;3.00;;
64619;SDS011;51029;51.058;13.826;2022-07-29T05:11:16;9.80;;;3.13;;
64619;SDS011;51029;51.058;13.826;2022-07-29T05:13:42;5.33;;;2.60;;
64619;SDS011;51029;51.058;13.826;2022-07-29T05:16:08;5.27;;;2.70;;
64619;SDS011;51029;51.058;13.826;2022-07-29T05:18:34;4.93;;;2.73;;
64619;SDS011;51029;51.058;13.826;2022-07-29T05:21:00;13.90;;;5.80;;
64619;SDS011;51029;51.058;13.826;2022-07-29T05:23:26;12.93;;;7.83;;
64619;SDS011;51029;51.058;13.826;2022-07-29T05:25:52;16.87;;;11.23;;
64619;SDS011;51029;51.058;13.826;2022-07-29T05:28:18;12.63;;;7.50;;
64619;SDS011;51029;51.058;13.826;2022-07-29T05:30:44;12.20;;;7.60;;
64619;SDS011;51029;51.058;13.826;2022-07-29T05:33:10;7.50;;;2.93;;
64619;SDS011;51029;51.058;13.826;2022-07-29T05:35:36;10.40;;;3.50;;
64619;SDS011;51029;51.058;13.826;2022-07-29T05:38:02;6.43;;;3.50;;
64619;SDS011;51029;51.058;13.826;2022-07-29T05:40:28;7.77;;;3.90;;
64619;SDS011;51029;51.058;13.826;2022-07-29T05:42:54;6.60;;;4.07;;
64619;SDS011;51029;51.058;13.826;2022-07-29T05:45:20;8.03;;;3.90;;
64619;SDS011;51029;51.058;13.826;2022-07-29T05:47:46;7.00;;;3.80;;
64619;SDS011;51029;51.058;13.826;2022-07-29T05:50:12;10.50;;;4.30;;
64619;SDS011;51029;51.058;13.826;2022-07-29T05:52:38;6.23;;;4.07;;
64619;SDS011;51029;51.058;13.826;2022-07-29T05:55:04;7.37;;;3.80;;
64619;SDS011;51029;51.058;13.826;2022-07-29T05:57:31;9.53;;;4.33;;
64619;SDS011;51029;51.058;13.826;2022-07-29T05:59:57;10.87;;;5.30;;
64619;SDS011;51029;51.058;13.826;2022-07-29T06:02:23;8.87;;;5.00;;
64619;SDS011;51029;51.058;13.826;2022-07-29T06:04:49;8.50;;;5.60;;
64619;SDS011;51029;51.058;13.826;2022-07-29T06:07:15;11.47;;;6.23;;
64619;SDS011;51029;51.058;13.826;2022-07-29T06:09:41;16.53;;;7.27;;
64619;SDS011;51029;51.058;13.826;2022-07-29T06:12:08;11.07;;;6.83;;
64619;SDS011;51029;51.058;13.826;2022-07-29T06:14:34;10.77;;;6.03;;
64619;SDS011;51029;51.058;13.826;2022-07-29T06:17:00;11.73;;;7.17;;
64619;SDS011;51029;51.058;13.826;2022-07-29T06:19:27;12.57;;;6.80;;
64619;SDS011;51029;51.058;13.826;2022-07-29T06:21:53;10.63;;;6.77;;
64619;SDS011;51029;51.058;13.826;2022-07-29T06:24:19;10.27;;;7.23;;
64619;SDS011;51029;51.058;13.826;2022-07-29T06:26:45;12.33;;;7.47;;
64619;SDS011;51029;51.058;13.826;2022-07-29T06:29:11;15.23;;;7.60;;
64619;SDS011;51029;51.058;13.826;2022-07-29T06:31:37;11.37;;;7.90;;
64619;SDS011;51029;51.058;13.826;2022-07-29T06:34:03;13.83;;;7.70;;
64619;SDS011;51029;51.058;13.826;2022-07-29T06:36:29;13.00;;;8.40;;
64619;SDS011;51029;51.058;13.826;2022-07-29T06:38:55;11.77;;;8.63;;
64619;SDS011;51029;51.058;13.826;2022-07-29T06:41:21;16.07;;;9.17;;
64619;SDS011;51029;51.058;13.826;2022-07-29T06:43:48;17.23;;;9.77;;
64619;SDS011;51029;51.058;13.826;2022-07-29T06:46:16;14.93;;;9.30;;
64619;SDS011;51029;51.058;13.826;2022-07-29T06:48:42;13.73;;;9.10;;
64619;SDS011;51029;51.058;13.826;2022-07-29T06:51:09;15.53;;;9.97;;
64619;SDS011;51029;51.058;13.826;2022-07-29T06:53:36;14.53;;;9.30;;
64619;SDS011;51029;51.058;13.826;2022-07-29T06:56:02;15.07;;;9.83;;
64619;SDS011;51029;51.058;13.826;2022-07-29T06:58:29;17.27;;;11.60;;
64619;SDS011;51029;51.058;13.826;2022-07-29T07:00:55;20.10;;;13.10;;
64619;SDS011;51029;51.058;13.826;2022-07-29T07:03:22;19.47;;;13.43;;
64619;SDS011;51029;51.058;13.826;2022-07-29T07:05:47;18.83;;;13.17;;
64619;SDS011;51029;51.058;13.826;2022-07-29T07:08:14;19.07;;;12.67;;
64619;SDS011;51029;51.058;13.826;2022-07-29T07:10:41;18.17;;;12.37;;
64619;SDS011;51029;51.058;13.826;2022-07-29T07:13:07;16.60;;;13.27;;
64619;SDS011;51029;51.058;13.826;2022-07-29T07:15:32;18.00;;;12.47;;
64619;SDS011;51029;51.058;13.826;2022-07-29T07:17:58;22.10;;;12.80;;
64619;SDS011;51029;51.058;13.826;2022-07-29T07:20:24;17.27;;;11.77;;
64619;SDS011;51029;51.058;13.826;2022-07-29T07:22:50;18.00;;;11.60;;
64619;SDS011;51029;51.058;13.826;2022-07-29T07:25:16;16.60;;;11.47;;
64619;SDS011;51029;51.058;13.826;2022-07-29T07:27:43;21.43;;;11.63;;
64619;SDS011;51029;51.058;13.826;2022-07-29T07:30:09;18.33;;;11.13;;
64619;SDS011;51029;51.058;13.826;2022-07-29T07:32:35;15.50;;;11.53;;
64619;SDS011;51029;51.058;13.826;2022-07-29T07:35:02;17.50;;;11.63;;
64619;SDS011;51029;51.058;13.826;2022-07-29T07:37:28;17.17;;;11.73;;
64619;SDS011;51029;51.058;13.826;2022-07-29T07:39:54;18.17;;;11.40;;
64619;SDS011;51029;51.058;13.826;2022-07-29T07:42:20;18.77;;;11.03;;
64619;SDS011;51029;51.058;13.826;2022-07-29T07:44:46;17.90;;;11.10;;
64619;SDS011;51029;51.058;13.826;2022-07-29T07:47:13;14.97;;;10.53;;
64619;SDS011;51029;51.058;13.826;2022-07-29T07:49:39;18.13;;;10.40;;
64619;SDS011;51029;51.058;13.826;2022-07-29T07:52:05;18.17;;;10.40;;
64619;SDS011;51029;51.058;13.826;2022-07-29T07:54:31;17.73;;;10.00;;
64619;SDS011;51029;51.058;13.826;2022-07-29T07:56:57;15.40;;;9.67;;
64619;SDS011;51029;51.058;13.826;2022-07-29T07:59:23;16.80;;;10.30;;
64619;SDS011;51029;51.058;13.826;2022-07-29T08:01:49;16.60;;;10.20;;
64619;SDS011;51029;51.058;13.826;2022-07-29T08:04:15;15.47;;;10.33;;
64619;SDS011;51029;51.058;13.826;2022-07-29T08:06:41;19.47;;;11.13;;
64619;SDS011;51029;51.058;13.826;2022-07-29T08:09:07;16.23;;;9.67;;
64619;SDS011;51029;51.058;13.826;2022-07-29T08:11:33;16.77;;;10.23;;
64619;SDS011;51029;51.058;13.826;2022-07-29T08:13:59;15.03;;;9.70;;
64619;SDS011;51029;51.058;13.826;2022-07-29T08:16:26;18.37;;;9.90;;
64619;SDS011;51029;51.058;13.826;2022-07-29T08:18:52;19.07;;;9.70;;
64619;SDS011;51029;51.058;13.826;2022-07-29T08:21:21;16.73;;;9.37;;
64619;SDS011;51029;51.058;13.826;2022-07-29T08:23:48;21.20;;;9.90;;
64619;SDS011;51029;51.058;13.826;2022-07-29T08:26:15;16.83;;;10.07;;
64619;SDS011;51029;51.058;13.826;2022-07-29T08:28:42;17.87;;;9.67;;
64619;SDS011;51029;51.058;13.826;2022-07-29T08:31:10;19.80;;;10.17;;
64619;SDS011;51029;51.058;13.826;2022-07-29T08:33:36;22.93;;;11.07;;
64619;SDS011;51029;51.058;13.826;2022-07-29T08:36:02;24.83;;;10.67;;
64619;SDS011;51029;51.058;13.826;2022-07-29T08:38:28;18.77;;;12.50;;
64619;SDS011;51029;51.058;13.826;2022-07-29T08:40:54;21.00;;;10.77;;
64619;SDS011;51029;51.058;13.826;2022-07-29T08:43:20;17.63;;;9.87;;
64619;SDS011;51029;51.058;13.826;2022-07-29T08:45:47;16.27;;;10.10;;
64619;SDS011;51029;51.058;13.826;2022-07-29T08:48:14;17.33;;;11.00;;
64619;SDS011;51029;51.058;13.826;2022-07-29T08:50:41;17.50;;;11.20;;
64619;SDS011;51029;51.058;13.826;2022-07-29T08:53:07;14.37;;;9.33;;
64619;SDS011;51029;51.058;13.826;2022-07-29T08:55:36;15.80;;;9.87;;
64619;SDS011;51029;51.058;13.826;2022-07-29T08:58:04;13.90;;;9.60;;
64619;SDS011;51029;51.058;13.826;2022-07-29T09:00:30;16.20;;;10.00;;
64619;SDS011;51029;51.058;13.826;2022-07-29T09:02:57;13.80;;;9.97;;
64619;SDS011;51029;51.058;13.826;2022-07-29T09:05:24;12.97;;;9.00;;
64619;SDS011;51029;51.058;13.826;2022-07-29T09:07:51;14.97;;;9.10;;
64619;SDS011;51029;51.058;13.826;2022-07-29T09:10:17;13.20;;;8.63;;
64619;SDS011;51029;51.058;13.826;2022-07-29T09:12:43;12.70;;;7.70;;
64619;SDS011;51029;51.058;13.826;2022-07-29T09:15:09;12.25;;;7.75;;
64619;SDS011;51029;51.058;13.826;2022-07-29T09:17:56;12.25;;;7.80;;
64619;SDS011;51029;51.058;13.826;2022-07-29T09:20:23;13.90;;;7.90;;
64619;SDS011;51029;51.058;13.826;2022-07-29T09:22:49;11.85;;;7.38;;
64619;SDS011;51029;51.058;13.826;2022-07-29T09:25:34;12.73;;;8.30;;
64619;SDS011;51029;51.058;13.826;2022-07-29T09:28:07;10.57;;;7.55;;
64619;SDS011;51029;51.058;13.826;2022-07-29T09:30:33;11.13;;;7.20;;
64619;SDS011;51029;51.058;13.826;2022-07-29T09:33:00;11.07;;;6.80;;
64619;SDS011;51029;51.058;13.826;2022-07-29T09:35:27;12.32;;;7.10;;
64619;SDS011;51029;51.058;13.826;2022-07-29T09:37:54;9.38;;;6.28;;
64619;SDS011;51029;51.058;13.826;2022-07-29T09:40:23;8.75;;;6.70;;
64619;SDS011;51029;51.058;13.826;2022-07-29T09:42:49;7.57;;;6.13;;
64619;SDS011;51029;51.058;13.826;2022-07-29T09:45:26;11.85;;;6.57;;
64619;SDS011;51029;51.058;13.826;2022-07-29T09:47:52;9.95;;;6.30;;
64619;SDS011;51029;51.058;13.826;2022-07-29T09:50:19;7.05;;;5.05;;
64619;SDS011;51029;51.058;13.826;2022-07-29T09:52:51;8.57;;;5.28;;
64619;SDS011;51029;51.058;13.826;2022-07-29T09:55:20;8.35;;;6.00;;
64619;SDS011;51029;51.058;13.826;2022-07-29T09:57:46;8.13;;;5.93;;
64619;SDS011;51029;51.058;13.826;2022-07-29T10:00:17;13.23;;;7.28;;
64619;SDS011;51029;51.058;13.826;2022-07-29T10:02:44;9.35;;;6.60;;
64619;SDS011;51029;51.058;13.826;2022-07-29T10:05:21;10.75;;;6.50;;
64619;SDS011;51029;51.058;13.826;2022-07-29T10:10:26;10.38;;;5.70;;
64619;SDS011;51029;51.058;13.826;2022-07-29T10:12:57;10.07;;;6.35;;
64619;SDS011;51029;51.058;13.826;2022-07-29T10:15:23;7.95;;;5.85;;
64619;SDS011;51029;51.058;13.826;2022-07-29T10:17:50;10.32;;;5.80;;
64619;SDS011;51029;51.058;13.826;2022-07-29T10:20:16;9.95;;;5.90;;
64619;SDS011;51029;51.058;13.826;2022-07-29T10:22:42;8.85;;;5.50;;
64619;SDS011;51029;51.058;13.826;2022-07-29T10:25:09;9.27;;;5.40;;
64619;SDS011;51029;51.058;13.826;2022-07-29T10:27:35;8.07;;;5.43;;
64619;SDS011;51029;51.058;13.826;2022-07-29T10:30:01;10.02;;;5.53;;
64619;SDS011;51029;51.058;13.826;2022-07-29T10:32:31;7.47;;;5.50;;
64619;SDS011;51029;51.058;13.826;2022-07-29T10:35:05;7.85;;;5.28;;
64619;SDS011;51029;51.058;13.826;2022-07-29T10:42:56;5.85;;;4.10;;
64619;SDS011;51029;51.058;13.826;2022-07-29T10:45:24;6.22;;;3.55;;
64619;SDS011;51029;51.058;13.826;2022-07-29T10:48:02;6.63;;;3.20;;
64619;SDS011;51029;51.058;13.826;2022-07-29T10:50:28;4.03;;;2.90;;
64619;SDS011;51029;51.058;13.826;2022-07-29T10:53:14;4.97;;;3.20;;
64619;SDS011;51029;51.058;13.826;2022-07-29T10:55:40;5.40;;;3.20;;
64619;SDS011;51029;51.058;13.826;2022-07-29T11:00:45;4.78;;;3.10;;
64619;SDS011;51029;51.058;13.826;2022-07-29T11:05:56;5.90;;;3.10;;
64619;SDS011;51029;51.058;13.826;2022-07-29T11:08:23;8.57;;;2.60;;
64619;SDS011;51029;51.058;13.826;2022-07-29T11:10:50;4.07;;;2.45;;
64619;SDS011;51029;51.058;13.826;2022-07-29T11:16:01;3.10;;;2.03;;
64619;SDS011;51029;51.058;13.826;2022-07-29T11:18:27;3.17;;;1.90;;
64619;SDS011;51029;51.058;13.826;2022-07-29T11:20:54;5.72;;;3.70;;
64619;SDS011;51029;51.058;13.826;2022-07-29T11:23:21;4.80;;;2.33;;
64619;SDS011;51029;51.058;13.826;2022-07-29T11:31:37;6.57;;;2.83;;
64619;SDS011;51029;51.058;13.826;2022-07-29T11:39:26;6.60;;;4.90;;
64619;SDS011;51029;51.058;13.826;2022-07-29T11:41:52;8.13;;;6.20;;
64619;SDS011;51029;51.058;13.826;2022-07-29T11:44:18;10.80;;;6.38;;
64619;SDS011;51029;51.058;13.826;2022-07-29T11:47:04;11.75;;;6.90;;
64619;SDS011;51029;51.058;13.826;2022-07-29T11:49:30;9.60;;;6.68;;
64619;SDS011;51029;51.058;13.826;2022-07-29T11:51:57;8.95;;;6.70;;
64619;SDS011;51029;51.058;13.826;2022-07-29T11:54:34;9.45;;;5.78;;
64619;SDS011;51029;51.058;13.826;2022-07-29T11:57:01;9.20;;;5.80;;
64619;SDS011;51029;51.058;13.826;2022-07-29T11:59:27;9.38;;;5.10;;
64619;SDS011;51029;51.058;13.826;2022-07-29T12:02:00;6.95;;;4.57;;
64619;SDS011;51029;51.058;13.826;2022-07-29T12:04:26;7.68;;;4.70;;
64619;SDS011;51029;51.058;13.826;2022-07-29T12:06:53;7.80;;;4.40;;
64619;SDS011;51029;51.058;13.826;2022-07-29T12:09:20;8.38;;;4.50;;
64619;SDS011;51029;51.058;13.826;2022-07-29T12:11:46;6.53;;;3.85;;
64619;SDS011;51029;51.058;13.826;2022-07-29T12:14:25;8.38;;;4.10;;
64619;SDS011;51029;51.058;13.826;2022-07-29T12:16:51;7.10;;;4.13;;
64619;SDS011;51029;51.058;13.826;2022-07-29T12:19:17;8.95;;;4.05;;
64619;SDS011;51029;51.058;13.826;2022-07-29T12:21:47;6.55;;;3.97;;
64619;SDS011;51029;51.058;13.826;2022-07-29T12:24:13;6.32;;;4.22;;
64619;SDS011;51029;51.058;13.826;2022-07-29T12:26:49;6.20;;;4.28;;
64619;SDS011;51029;51.058;13.826;2022-07-29T12:29:15;8.13;;;4.78;;
64619;SDS011;51029;51.058;13.826;2022-07-29T12:31:42;7.47;;;5.05;;
64619;SDS011;51029;51.058;13.826;2022-07-29T12:34:09;10.68;;;5.50;;
64619;SDS011;51029;51.058;13.826;2022-07-29T12:36:35;9.90;;;5.40;;
64619;SDS011;51029;51.058;13.826;2022-07-29T12:39:01;8.68;;;5.90;;
64619;SDS011;51029;51.058;13.826;2022-07-29T12:41:28;9.57;;;5.55;;
64619;SDS011;51029;51.058;13.826;2022-07-29T12:43:54;8.18;;;5.50;;
64619;SDS011;51029;51.058;13.826;2022-07-29T12:46:20;8.27;;;5.40;;
64619;SDS011;51029;51.058;13.826;2022-07-29T12:48:49;9.65;;;6.10;;
64619;SDS011;51029;51.058;13.826;2022-07-29T12:54:03;9.48;;;6.78;;
64619;SDS011;51029;51.058;13.826;2022-07-29T12:56:29;13.15;;;7.05;;
64619;SDS011;51029;51.058;13.826;2022-07-29T12:58:55;7.68;;;5.65;;
64619;SDS011;51029;51.058;13.826;2022-07-29T13:01:21;9.10;;;6.13;;
64619;SDS011;51029;51.058;13.826;2022-07-29T13:09:12;8.38;;;6.00;;
64619;SDS011;51029;51.058;13.826;2022-07-29T13:11:40;10.07;;;5.90;;
64619;SDS011;51029;51.058;13.826;2022-07-29T13:14:07;7.28;;;5.13;;
64619;SDS011;51029;51.058;13.826;2022-07-29T13:16:33;7.97;;;5.30;;
64619;SDS011;51029;51.058;13.826;2022-07-29T13:19:17;11.27;;;4.90;;
64619;SDS011;51029;51.058;13.826;2022-07-29T13:21:44;6.35;;;4.70;;
64619;SDS011;51029;51.058;13.826;2022-07-29T13:24:10;6.28;;;4.28;;
64619;SDS011;51029;51.058;13.826;2022-07-29T13:26:39;7.85;;;4.18;;
64619;SDS011;51029;51.058;13.826;2022-07-29T13:29:05;6.90;;;3.92;;
64619;SDS011;51029;51.058;13.826;2022-07-29T13:31:32;6.97;;;4.20;;
64619;SDS011;51029;51.058;13.826;2022-07-29T13:33:58;4.95;;;3.78;;
64619;SDS011;51029;51.058;13.826;2022-07-29T13:36:23;4.47;;;3.15;;
64619;SDS011;51029;51.058;13.826;2022-07-29T13:38:49;7.45;;;2.80;;
64619;SDS011;51029;51.058;13.826;2022-07-29T13:41:15;2.75;;;2.55;;
64619;SDS011;51029;51.058;13.826;2022-07-29T13:43:41;5.38;;;2.75;;
64619;SDS011;51029;51.058;13.826;2022-07-29T13:46:07;4.38;;;2.50;;
64619;SDS011;51029;51.058;13.826;2022-07-29T13:48:33;4.78;;;2.80;;
64619;SDS011;51029;51.058;13.826;2022-07-29T13:50:59;6.05;;;2.50;;
64619;SDS011;51029;51.058;13.826;2022-07-29T13:53:25;5.65;;;2.60;;
64619;SDS011;51029;51.058;13.826;2022-07-29T13:55:52;3.60;;;2.65;;
64619;SDS011;51029;51.058;13.826;2022-07-29T13:58:18;3.55;;;2.70;;
64619;SDS011;51029;51.058;13.826;2022-07-29T14:00:44;5.10;;;2.88;;
64619;SDS011;51029;51.058;13.826;2022-07-29T14:03:11;5.53;;;2.95;;
64619;SDS011;51029;51.058;13.826;2022-07-29T14:05:37;4.28;;;2.80;;
64619;SDS011;51029;51.058;13.826;2022-07-29T14:08:03;5.10;;;2.90;;
64619;SDS011;51029;51.058;13.826;2022-07-29T14:10:29;5.32;;;2.92;;
64619;SDS011;51029;51.058;13.826;2022-07-29T14:12:55;3.60;;;2.38;;
64619;SDS011;51029;51.058;13.826;2022-07-29T14:15:21;3.55;;;2.70;;
64619;SDS011;51029;51.058;13.826;2022-07-29T14:17:48;7.65;;;2.65;;
64619;SDS011;51029;51.058;13.826;2022-07-29T14:20:14;5.97;;;2.72;;
64619;SDS011;51029;51.058;13.826;2022-07-29T14:22:40;3.30;;;2.55;;
64619;SDS011;51029;51.058;13.826;2022-07-29T14:25:07;4.93;;;2.60;;
64619;SDS011;51029;51.058;13.826;2022-07-29T14:27:33;4.97;;;2.45;;
64619;SDS011;51029;51.058;13.826;2022-07-29T14:29:59;4.03;;;2.63;;
64619;SDS011;51029;51.058;13.826;2022-07-29T14:32:25;3.08;;;2.40;;
64619;SDS011;51029;51.058;13.826;2022-07-29T14:34:51;3.42;;;2.50;;
64619;SDS011;51029;51.058;13.826;2022-07-29T14:37:17;6.82;;;3.70;;
64619;SDS011;51029;51.058;13.826;2022-07-29T14:39:43;5.32;;;4.50;;
64619;SDS011;51029;51.058;13.826;2022-07-29T14:42:09;6.28;;;4.65;;
64619;SDS011;51029;51.058;13.826;2022-07-29T14:44:35;7.50;;;4.22;;
64619;SDS011;51029;51.058;13.826;2022-07-29T14:47:01;4.93;;;3.90;;
64619;SDS011;51029;51.058;13.826;2022-07-29T14:49:27;6.32;;;4.28;;
64619;SDS011;51029;51.058;13.826;2022-07-29T14:51:53;6.28;;;4.30;;
64619;SDS011;51029;51.058;13.826;2022-07-29T14:54:19;9.25;;;7.07;;
64619;SDS011;51029;51.058;13.826;2022-07-29T14:56:45;15.05;;;7.68;;
64619;SDS011;51029;51.058;13.826;2022-07-29T14:59:11;11.65;;;6.80;;
64619;SDS011;51029;51.058;13.826;2022-07-29T15:01:37;8.95;;;6.50;;
64619;SDS011;51029;51.058;13.826;2022-07-29T15:04:03;10.45;;;6.97;;
64619;SDS011;51029;51.058;13.826;2022-07-29T15:06:29;8.27;;;6.78;;
64619;SDS011;51029;51.058;13.826;2022-07-29T15:08:55;9.82;;;6.75;;
64619;SDS011;51029;51.058;13.826;2022-07-29T15:11:21;11.45;;;6.07;;
64619;SDS011;51029;51.058;13.826;2022-07-29T15:13:47;11.13;;;6.80;;
64619;SDS011;51029;51.058;13.826;2022-07-29T15:16:13;11.07;;;6.80;;